sensor_id;sensor_type;location;lat;lon;timestamp;temperature;humidity
49549;DHT22;35450;44.518;7.466;2022-12-01T00:02:19;5.90;98.70
49549;DHT22;35450;44.518;7.466;2022-12-01T00:05:24;6.00;98.70
49549;DHT22;35450;44.518;7.466;2022-12-01T00:08:28;5.90;98.80
49549;DHT22;35450;44.518;7.466;2022-12-01T00:11:34;5.90;98.60
49549;DHT22;35450;44.518;7.466;2022-12-01T00:14:39;5.90;98.70
49549;DHT22;35450;44.518;7.466;2022-12-01T00:17:43;5.90;98.70
49549;DHT22;35450;44.518;7.466;2022-12-01T00:20:48;6.00;98.60
49549;DHT22;35450;44.518;7.466;2022-12-01T00:23:58;5.90;98.50
49549;DHT22;35450;44.518;7.466;2022-12-01T00:27:03;5.90;98.40
49549;DHT22;35450;44.518;7.466;2022-12-01T00:30:10;5.90;98.30
49549;DHT22;35450;44.518;7.466;2022-12-01T00:33:14;5.80;98.50
49549;DHT22;35450;44.518;7.466;2022-12-01T00:36:18;5.80;98.60
49549;DHT22;35450;44.518;7.466;2022-12-01T00:39:22;5.90;98.30
49549;DHT22;35450;44.518;7.466;2022-12-01T00:42:26;5.70;98.50
49549;DHT22;35450;44.518;7.466;2022-12-01T00:45:30;5.60;98.90
49549;DHT22;35450;44.518;7.466;2022-12-01T00:48:34;5.70;98.90
49549;DHT22;35450;44.518;7.466;2022-12-01T00:51:38;5.80;98.80
49549;DHT22;35450;44.518;7.466;2022-12-01T00:54:42;5.80;98.80
49549;DHT22;35450;44.518;7.466;2022-12-01T00:57:46;5.90;98.80
49549;DHT22;35450;44.518;7.466;2022-12-01T01:00:57;5.90;98.60
49549;DHT22;35450;44.518;7.466;2022-12-01T01:04:02;5.90;98.60
49549;DHT22;35450;44.518;7.466;2022-12-01T01:07:06;6.00;98.90
49549;DHT22;35450;44.518;7.466;2022-12-01T01:10:10;6.00;99.10
49549;DHT22;35450;44.518;7.466;2022-12-01T01:13:14;6.00;99.20
49549;DHT22;35450;44.518;7.466;2022-12-01T01:16:20;6.00;99.10
49549;DHT22;35450;44.518;7.466;2022-12-01T01:19:24;5.90;99.40
49549;DHT22;35450;44.518;7.466;2022-12-01T01:22:28;6.00;99.20
49549;DHT22;35450;44.518;7.466;2022-12-01T01:25:33;6.00;99.30
49549;DHT22;35450;44.518;7.466;2022-12-01T01:28:36;6.00;99.30
49549;DHT22;35450;44.518;7.466;2022-12-01T01:31:41;6.00;99.30
49549;DHT22;35450;44.518;7.466;2022-12-01T01:34:45;6.10;99.20
49549;DHT22;35450;44.518;7.466;2022-12-01T01:37:49;6.10;99.20
49549;DHT22;35450;44.518;7.466;2022-12-01T01:40:54;6.10;99.20
49549;DHT22;35450;44.518;7.466;2022-12-01T01:44:00;6.00;99.10
49549;DHT22;35450;44.518;7.466;2022-12-01T01:47:05;6.10;99.20
49549;DHT22;35450;44.518;7.466;2022-12-01T01:50:12;6.10;99.10
49549;DHT22;35450;44.518;7.466;2022-12-01T01:53:17;6.10;99.00
49549;DHT22;35450;44.518;7.466;2022-12-01T01:56:22;6.00;98.90
49549;DHT22;35450;44.518;7.466;2022-12-01T01:59:31;6.00;98.90
49549;DHT22;35450;44.518;7.466;2022-12-01T02:02:39;6.00;98.90
49549;DHT22;35450;44.518;7.466;2022-12-01T02:05:46;6.00;98.70
49549;DHT22;35450;44.518;7.466;2022-12-01T02:08:50;5.90;99.10
49549;DHT22;35450;44.518;7.466;2022-12-01T02:12:12;5.90;98.60
49549;DHT22;35450;44.518;7.466;2022-12-01T02:15:38;5.90;98.70
49549;DHT22;35450;44.518;7.466;2022-12-01T02:41:41;5.60;98.00
49549;DHT22;35450;44.518;7.466;2022-12-01T02:44:46;5.60;98.00
49549;DHT22;35450;44.518;7.466;2022-12-01T02:47:53;5.50;97.90
49549;DHT22;35450;44.518;7.466;2022-12-01T02:51:32;5.50;97.90
49549;DHT22;35450;44.518;7.466;2022-12-01T02:54:36;5.20;98.00
49549;DHT22;35450;44.518;7.466;2022-12-01T02:57:39;5.10;98.80
49549;DHT22;35450;44.518;7.466;2022-12-01T03:00:58;5.20;98.60
49549;DHT22;35450;44.518;7.466;2022-12-01T03:10:56;5.40;98.10
49549;DHT22;35450;44.518;7.466;2022-12-01T03:14:08;5.40;98.30
49549;DHT22;35450;44.518;7.466;2022-12-01T03:17:18;5.40;98.60
49549;DHT22;35450;44.518;7.466;2022-12-01T03:20:35;5.40;98.30
49549;DHT22;35450;44.518;7.466;2022-12-01T03:23:45;5.50;98.20
49549;DHT22;35450;44.518;7.466;2022-12-01T03:26:54;5.40;98.00
49549;DHT22;35450;44.518;7.466;2022-12-01T03:30:00;5.40;97.80
49549;DHT22;35450;44.518;7.466;2022-12-01T03:33:09;5.50;98.00
49549;DHT22;35450;44.518;7.466;2022-12-01T03:36:39;5.50;98.00
49549;DHT22;35450;44.518;7.466;2022-12-01T03:39:46;5.60;97.90
49549;DHT22;35450;44.518;7.466;2022-12-01T03:42:56;5.70;97.80
49549;DHT22;35450;44.518;7.466;2022-12-01T03:46:20;5.60;97.80
49549;DHT22;35450;44.518;7.466;2022-12-01T03:49:25;5.60;98.00
49549;DHT22;35450;44.518;7.466;2022-12-01T03:55:47;5.60;98.10
49549;DHT22;35450;44.518;7.466;2022-12-01T03:58:55;5.70;98.30
49549;DHT22;35450;44.518;7.466;2022-12-01T04:02:00;5.60;98.20
49549;DHT22;35450;44.518;7.466;2022-12-01T04:05:05;5.60;98.40
49549;DHT22;35450;44.518;7.466;2022-12-01T04:08:09;5.60;98.70
49549;DHT22;35450;44.518;7.466;2022-12-01T04:11:13;5.60;98.60
49549;DHT22;35450;44.518;7.466;2022-12-01T04:14:36;5.70;98.50
49549;DHT22;35450;44.518;7.466;2022-12-01T04:17:41;5.70;98.60
49549;DHT22;35450;44.518;7.466;2022-12-01T04:20:47;5.80;98.40
49549;DHT22;35450;44.518;7.466;2022-12-01T04:23:51;5.90;98.30
49549;DHT22;35450;44.518;7.466;2022-12-01T04:27:03;5.90;98.10
49549;DHT22;35450;44.518;7.466;2022-12-01T04:30:08;5.90;98.20
49549;DHT22;35450;44.518;7.466;2022-12-01T04:33:12;5.90;98.30
49549;DHT22;35450;44.518;7.466;2022-12-01T04:36:16;5.90;98.40
49549;DHT22;35450;44.518;7.466;2022-12-01T04:39:20;5.90;98.40
49549;DHT22;35450;44.518;7.466;2022-12-01T04:42:24;5.90;98.30
49549;DHT22;35450;44.518;7.466;2022-12-01T04:45:28;5.90;98.30
49549;DHT22;35450;44.518;7.466;2022-12-01T04:48:36;5.90;98.40
49549;DHT22;35450;44.518;7.466;2022-12-01T04:51:41;5.90;98.40
49549;DHT22;35450;44.518;7.466;2022-12-01T04:54:45;5.80;98.70
49549;DHT22;35450;44.518;7.466;2022-12-01T04:57:49;5.90;98.50
49549;DHT22;35450;44.518;7.466;2022-12-01T05:00:53;6.00;98.50
49549;DHT22;35450;44.518;7.466;2022-12-01T05:03:57;6.00;98.40
49549;DHT22;35450;44.518;7.466;2022-12-01T05:07:01;6.00;98.50
49549;DHT22;35450;44.518;7.466;2022-12-01T05:10:06;5.90;98.60
49549;DHT22;35450;44.518;7.466;2022-12-01T05:13:10;6.00;98.60
49549;DHT22;35450;44.518;7.466;2022-12-01T05:16:23;6.00;98.60
49549;DHT22;35450;44.518;7.466;2022-12-01T05:19:27;6.00;98.30
49549;DHT22;35450;44.518;7.466;2022-12-01T05:22:49;6.10;98.30
49549;DHT22;35450;44.518;7.466;2022-12-01T05:25:55;6.10;98.30
49549;DHT22;35450;44.518;7.466;2022-12-01T05:28:59;6.10;98.10
49549;DHT22;35450;44.518;7.466;2022-12-01T05:32:03;6.10;98.10
49549;DHT22;35450;44.518;7.466;2022-12-01T05:35:07;6.10;98.10
49549;DHT22;35450;44.518;7.466;2022-12-01T05:38:11;6.10;98.10
49549;DHT22;35450;44.518;7.466;2022-12-01T05:41:15;6.20;97.90
49549;DHT22;35450;44.518;7.466;2022-12-01T05:44:19;6.20;97.80
49549;DHT22;35450;44.518;7.466;2022-12-01T05:47:23;6.20;97.70
49549;DHT22;35450;44.518;7.466;2022-12-01T05:50:28;6.30;97.90
49549;DHT22;35450;44.518;7.466;2022-12-01T05:53:33;6.30;97.60
49549;DHT22;35450;44.518;7.466;2022-12-01T05:56:37;6.30;97.40
49549;DHT22;35450;44.518;7.466;2022-12-01T05:59:40;6.40;97.40
49549;DHT22;35450;44.518;7.466;2022-12-01T06:02:44;6.40;97.30
49549;DHT22;35450;44.518;7.466;2022-12-01T06:05:49;6.40;97.40
49549;DHT22;35450;44.518;7.466;2022-12-01T06:08:53;6.40;97.20
49549;DHT22;35450;44.518;7.466;2022-12-01T06:11:57;6.40;97.50
49549;DHT22;35450;44.518;7.466;2022-12-01T06:15:01;6.40;97.70
49549;DHT22;35450;44.518;7.466;2022-12-01T06:18:06;6.40;98.00
49549;DHT22;35450;44.518;7.466;2022-12-01T06:21:10;6.30;97.90
49549;DHT22;35450;44.518;7.466;2022-12-01T06:24:14;6.40;97.80
49549;DHT22;35450;44.518;7.466;2022-12-01T06:27:18;6.30;97.40
49549;DHT22;35450;44.518;7.466;2022-12-01T06:30:22;6.40;97.50
49549;DHT22;35450;44.518;7.466;2022-12-01T06:33:26;6.40;97.40
49549;DHT22;35450;44.518;7.466;2022-12-01T06:36:31;6.30;97.30
49549;DHT22;35450;44.518;7.466;2022-12-01T06:39:35;6.30;97.40
49549;DHT22;35450;44.518;7.466;2022-12-01T06:42:38;6.30;97.50
49549;DHT22;35450;44.518;7.466;2022-12-01T06:45:42;6.30;97.60
49549;DHT22;35450;44.518;7.466;2022-12-01T06:48:49;6.30;97.50
49549;DHT22;35450;44.518;7.466;2022-12-01T06:51:53;6.40;97.70
49549;DHT22;35450;44.518;7.466;2022-12-01T06:54:57;6.40;97.70
49549;DHT22;35450;44.518;7.466;2022-12-01T06:58:03;6.40;97.80
49549;DHT22;35450;44.518;7.466;2022-12-01T07:01:09;6.40;97.90
49549;DHT22;35450;44.518;7.466;2022-12-01T07:04:13;6.40;97.70
49549;DHT22;35450;44.518;7.466;2022-12-01T07:07:17;6.40;97.90
49549;DHT22;35450;44.518;7.466;2022-12-01T07:10:21;6.30;98.50
49549;DHT22;35450;44.518;7.466;2022-12-01T07:13:24;6.20;98.60
49549;DHT22;35450;44.518;7.466;2022-12-01T07:16:29;6.30;98.50
49549;DHT22;35450;44.518;7.466;2022-12-01T07:19:32;6.30;98.20
49549;DHT22;35450;44.518;7.466;2022-12-01T07:22:36;6.40;98.20
49549;DHT22;35450;44.518;7.466;2022-12-01T07:25:42;6.30;98.40
49549;DHT22;35450;44.518;7.466;2022-12-01T07:28:46;6.40;97.90
49549;DHT22;35450;44.518;7.466;2022-12-01T07:31:50;6.50;97.40
49549;DHT22;35450;44.518;7.466;2022-12-01T07:34:55;6.50;97.50
49549;DHT22;35450;44.518;7.466;2022-12-01T07:37:59;6.60;97.80
49549;DHT22;35450;44.518;7.466;2022-12-01T07:41:08;6.60;97.70
49549;DHT22;35450;44.518;7.466;2022-12-01T07:44:13;6.60;97.70
49549;DHT22;35450;44.518;7.466;2022-12-01T07:47:17;6.70;97.90
49549;DHT22;35450;44.518;7.466;2022-12-01T07:50:21;6.70;98.00
49549;DHT22;35450;44.518;7.466;2022-12-01T07:53:25;6.70;97.90
49549;DHT22;35450;44.518;7.466;2022-12-01T07:56:30;6.70;97.90
49549;DHT22;35450;44.518;7.466;2022-12-01T07:59:34;6.80;97.80
49549;DHT22;35450;44.518;7.466;2022-12-01T08:02:38;6.90;97.90
49549;DHT22;35450;44.518;7.466;2022-12-01T08:05:42;6.80;98.40
49549;DHT22;35450;44.518;7.466;2022-12-01T08:08:46;6.90;98.60
49549;DHT22;35450;44.518;7.466;2022-12-01T08:11:51;6.90;98.70
49549;DHT22;35450;44.518;7.466;2022-12-01T08:14:55;6.90;98.00
49549;DHT22;35450;44.518;7.466;2022-12-01T08:17:59;7.00;97.80
49549;DHT22;35450;44.518;7.466;2022-12-01T08:21:05;7.00;97.80
49549;DHT22;35450;44.518;7.466;2022-12-01T08:24:09;7.00;98.00
49549;DHT22;35450;44.518;7.466;2022-12-01T08:27:14;7.00;98.10
49549;DHT22;35450;44.518;7.466;2022-12-01T08:30:18;7.00;97.90
49549;DHT22;35450;44.518;7.466;2022-12-01T08:33:22;7.10;98.00
49549;DHT22;35450;44.518;7.466;2022-12-01T08:36:26;7.10;98.40
49549;DHT22;35450;44.518;7.466;2022-12-01T08:39:30;7.00;98.70
49549;DHT22;35450;44.518;7.466;2022-12-01T08:42:34;7.00;99.20
49549;DHT22;35450;44.518;7.466;2022-12-01T08:45:38;6.90;99.50
49549;DHT22;35450;44.518;7.466;2022-12-01T08:48:42;7.10;99.60
49549;DHT22;35450;44.518;7.466;2022-12-01T08:51:46;7.10;99.90
49549;DHT22;35450;44.518;7.466;2022-12-01T08:54:50;7.20;99.60
49549;DHT22;35450;44.518;7.466;2022-12-01T08:57:54;7.20;99.30
49549;DHT22;35450;44.518;7.466;2022-12-01T09:01:07;7.30;99.10
49549;DHT22;35450;44.518;7.466;2022-12-01T09:04:11;7.40;98.60
49549;DHT22;35450;44.518;7.466;2022-12-01T09:07:16;7.40;98.70
49549;DHT22;35450;44.518;7.466;2022-12-01T09:10:20;7.50;99.20
49549;DHT22;35450;44.518;7.466;2022-12-01T09:13:25;7.50;99.60
49549;DHT22;35450;44.518;7.466;2022-12-01T09:16:30;7.60;99.80
49549;DHT22;35450;44.518;7.466;2022-12-01T09:19:35;7.60;99.90
49549;DHT22;35450;44.518;7.466;2022-12-01T09:22:39;7.70;99.70
49549;DHT22;35450;44.518;7.466;2022-12-01T09:25:43;7.70;99.00
49549;DHT22;35450;44.518;7.466;2022-12-01T09:28:49;7.70;97.90
49549;DHT22;35450;44.518;7.466;2022-12-01T09:31:57;7.70;96.70
49549;DHT22;35450;44.518;7.466;2022-12-01T09:35:02;7.80;96.70
49549;DHT22;35450;44.518;7.466;2022-12-01T09:38:06;7.80;96.50
49549;DHT22;35450;44.518;7.466;2022-12-01T09:41:18;7.80;96.20
49549;DHT22;35450;44.518;7.466;2022-12-01T09:44:40;7.90;95.80
49549;DHT22;35450;44.518;7.466;2022-12-01T09:47:44;7.90;95.60
49549;DHT22;35450;44.518;7.466;2022-12-01T09:50:49;7.90;95.60
49549;DHT22;35450;44.518;7.466;2022-12-01T09:53:57;7.90;95.10
49549;DHT22;35450;44.518;7.466;2022-12-01T09:57:02;8.00;94.90
49549;DHT22;35450;44.518;7.466;2022-12-01T10:00:24;8.10;94.60
49549;DHT22;35450;44.518;7.466;2022-12-01T10:03:42;8.00;94.00
49549;DHT22;35450;44.518;7.466;2022-12-01T10:10:27;8.10;93.80
49549;DHT22;35450;44.518;7.466;2022-12-01T10:13:32;8.10;94.10
49549;DHT22;35450;44.518;7.466;2022-12-01T10:16:53;8.20;93.40
49549;DHT22;35450;44.518;7.466;2022-12-01T10:27:29;8.30;92.80
49549;DHT22;35450;44.518;7.466;2022-12-01T10:30:47;8.30;92.80
49549;DHT22;35450;44.518;7.466;2022-12-01T10:34:05;8.40;92.50
49549;DHT22;35450;44.518;7.466;2022-12-01T10:37:20;8.30;92.50
49549;DHT22;35450;44.518;7.466;2022-12-01T10:40:26;8.40;92.20
49549;DHT22;35450;44.518;7.466;2022-12-01T10:43:38;8.50;92.10
49549;DHT22;35450;44.518;7.466;2022-12-01T10:46:53;8.60;92.10
49549;DHT22;35450;44.518;7.466;2022-12-01T10:49:58;8.60;93.00
49549;DHT22;35450;44.518;7.466;2022-12-01T10:53:03;8.60;92.30
49549;DHT22;35450;44.518;7.466;2022-12-01T10:56:20;8.60;91.80
49549;DHT22;35450;44.518;7.466;2022-12-01T10:59:30;8.70;92.00
49549;DHT22;35450;44.518;7.466;2022-12-01T11:02:34;8.70;91.90
49549;DHT22;35450;44.518;7.466;2022-12-01T11:05:41;8.70;91.80
49549;DHT22;35450;44.518;7.466;2022-12-01T11:08:50;8.70;92.00
49549;DHT22;35450;44.518;7.466;2022-12-01T11:12:01;8.70;91.60
49549;DHT22;35450;44.518;7.466;2022-12-01T11:15:06;8.70;91.50
49549;DHT22;35450;44.518;7.466;2022-12-01T11:21:27;8.80;91.30
49549;DHT22;35450;44.518;7.466;2022-12-01T11:24:59;8.80;91.30
49549;DHT22;35450;44.518;7.466;2022-12-01T11:28:04;8.80;91.40
49549;DHT22;35450;44.518;7.466;2022-12-01T11:31:09;8.90;91.30
49549;DHT22;35450;44.518;7.466;2022-12-01T11:34:24;8.90;91.30
49549;DHT22;35450;44.518;7.466;2022-12-01T11:37:35;8.90;91.30
49549;DHT22;35450;44.518;7.466;2022-12-01T11:40:50;8.90;91.00
49549;DHT22;35450;44.518;7.466;2022-12-01T11:43:54;9.00;91.00
49549;DHT22;35450;44.518;7.466;2022-12-01T11:47:16;8.90;90.90
49549;DHT22;35450;44.518;7.466;2022-12-01T11:50:27;9.00;90.80
49549;DHT22;35450;44.518;7.466;2022-12-01T11:53:37;9.00;90.60
49549;DHT22;35450;44.518;7.466;2022-12-01T11:56:42;9.00;90.80
49549;DHT22;35450;44.518;7.466;2022-12-01T11:59:47;9.00;90.20
49549;DHT22;35450;44.518;7.466;2022-12-01T12:06:25;9.00;88.80
49549;DHT22;35450;44.518;7.466;2022-12-01T12:30:23;9.10;89.00
49549;DHT22;35450;44.518;7.466;2022-12-01T12:33:47;9.10;88.60
49549;DHT22;35450;44.518;7.466;2022-12-01T12:37:41;9.10;88.40
49549;DHT22;35450;44.518;7.466;2022-12-01T12:50:38;9.20;88.60
49549;DHT22;35450;44.518;7.466;2022-12-01T13:00:28;9.30;88.60
49549;DHT22;35450;44.518;7.466;2022-12-01T13:03:56;9.30;87.80
49549;DHT22;35450;44.518;7.466;2022-12-01T13:07:08;9.20;88.20
49549;DHT22;35450;44.518;7.466;2022-12-01T13:10:22;9.30;88.80
49549;DHT22;35450;44.518;7.466;2022-12-01T13:13:32;9.30;88.50
49549;DHT22;35450;44.518;7.466;2022-12-01T13:16:43;9.30;88.10
49549;DHT22;35450;44.518;7.466;2022-12-01T13:19:48;9.30;87.20
49549;DHT22;35450;44.518;7.466;2022-12-01T13:22:52;9.30;86.10
49549;DHT22;35450;44.518;7.466;2022-12-01T13:25:58;9.30;86.70
49549;DHT22;35450;44.518;7.466;2022-12-01T13:29:06;9.30;87.00
49549;DHT22;35450;44.518;7.466;2022-12-01T13:32:38;9.40;87.50
49549;DHT22;35450;44.518;7.466;2022-12-01T13:35:43;9.40;88.60
49549;DHT22;35450;44.518;7.466;2022-12-01T13:42:26;9.40;89.90
49549;DHT22;35450;44.518;7.466;2022-12-01T13:45:33;9.40;90.10
49549;DHT22;35450;44.518;7.466;2022-12-01T13:52:38;9.40;89.70
49549;DHT22;35450;44.518;7.466;2022-12-01T13:55:59;9.40;89.40
49549;DHT22;35450;44.518;7.466;2022-12-01T14:06:39;9.50;89.30
49549;DHT22;35450;44.518;7.466;2022-12-01T14:09:55;9.50;89.00
49549;DHT22;35450;44.518;7.466;2022-12-01T14:13:03;9.40;89.20
49549;DHT22;35450;44.518;7.466;2022-12-01T14:16:08;9.40;89.30
49549;DHT22;35450;44.518;7.466;2022-12-01T14:19:35;9.40;88.90
49549;DHT22;35450;44.518;7.466;2022-12-01T14:22:47;9.30;88.90
49549;DHT22;35450;44.518;7.466;2022-12-01T14:29:30;9.40;90.70
49549;DHT22;35450;44.518;7.466;2022-12-01T14:32:35;9.50;91.20
49549;DHT22;35450;44.518;7.466;2022-12-01T14:35:39;9.60;91.00
49549;DHT22;35450;44.518;7.466;2022-12-01T14:38:45;9.70;91.50
49549;DHT22;35450;44.518;7.466;2022-12-01T14:44:56;9.90;92.00
49549;DHT22;35450;44.518;7.466;2022-12-01T14:48:10;9.80;92.00
49549;DHT22;35450;44.518;7.466;2022-12-01T14:51:30;9.70;92.00
49549;DHT22;35450;44.518;7.466;2022-12-01T14:54:46;9.60;92.20
49549;DHT22;35450;44.518;7.466;2022-12-01T14:58:02;9.50;91.90
49549;DHT22;35450;44.518;7.466;2022-12-01T15:01:11;9.50;92.00
49549;DHT22;35450;44.518;7.466;2022-12-01T15:04:16;9.50;91.60
49549;DHT22;35450;44.518;7.466;2022-12-01T15:07:21;9.40;91.30
49549;DHT22;35450;44.518;7.466;2022-12-01T15:10:31;9.30;91.30
49549;DHT22;35450;44.518;7.466;2022-12-01T15:13:44;9.20;91.60
49549;DHT22;35450;44.518;7.466;2022-12-01T15:16:49;9.10;91.70
49549;DHT22;35450;44.518;7.466;2022-12-01T15:19:53;9.00;92.00
49549;DHT22;35450;44.518;7.466;2022-12-01T15:22:58;8.90;92.10
49549;DHT22;35450;44.518;7.466;2022-12-01T15:26:03;8.80;92.00
49549;DHT22;35450;44.518;7.466;2022-12-01T15:29:26;8.70;92.10
49549;DHT22;35450;44.518;7.466;2022-12-01T15:32:34;8.70;92.20
49549;DHT22;35450;44.518;7.466;2022-12-01T15:35:41;8.70;92.10
49549;DHT22;35450;44.518;7.466;2022-12-01T15:38:49;8.60;92.20
49549;DHT22;35450;44.518;7.466;2022-12-01T15:41:53;8.50;92.30
49549;DHT22;35450;44.518;7.466;2022-12-01T15:45:00;8.50;92.30
49549;DHT22;35450;44.518;7.466;2022-12-01T15:48:22;8.40;92.40
49549;DHT22;35450;44.518;7.466;2022-12-01T15:51:27;8.30;92.60
49549;DHT22;35450;44.518;7.466;2022-12-01T15:54:31;8.30;92.60
49549;DHT22;35450;44.518;7.466;2022-12-01T15:57:35;8.30;92.40
49549;DHT22;35450;44.518;7.466;2022-12-01T16:00:39;8.20;92.50
49549;DHT22;35450;44.518;7.466;2022-12-01T16:03:53;8.10;92.30
49549;DHT22;35450;44.518;7.466;2022-12-01T16:07:04;8.10;92.20
49549;DHT22;35450;44.518;7.466;2022-12-01T16:10:35;8.20;92.20
49549;DHT22;35450;44.518;7.466;2022-12-01T16:13:56;8.10;92.00
49549;DHT22;35450;44.518;7.466;2022-12-01T16:17:03;8.00;91.90
49549;DHT22;35450;44.518;7.466;2022-12-01T16:20:37;8.00;91.70
49549;DHT22;35450;44.518;7.466;2022-12-01T16:23:41;8.00;91.60
49549;DHT22;35450;44.518;7.466;2022-12-01T16:30:02;7.90;91.40
49549;DHT22;35450;44.518;7.466;2022-12-01T16:33:25;8.00;91.40
49549;DHT22;35450;44.518;7.466;2022-12-01T16:36:29;7.80;91.30
49549;DHT22;35450;44.518;7.466;2022-12-01T16:39:33;7.80;91.10
49549;DHT22;35450;44.518;7.466;2022-12-01T16:42:37;7.80;91.00
49549;DHT22;35450;44.518;7.466;2022-12-01T16:45:42;7.90;90.70
49549;DHT22;35450;44.518;7.466;2022-12-01T16:48:47;7.80;90.50
49549;DHT22;35450;44.518;7.466;2022-12-01T16:51:52;7.70;90.60
49549;DHT22;35450;44.518;7.466;2022-12-01T16:54:56;7.70;90.30
49549;DHT22;35450;44.518;7.466;2022-12-01T16:57:59;7.70;90.30
49549;DHT22;35450;44.518;7.466;2022-12-01T17:01:04;7.70;90.60
49549;DHT22;35450;44.518;7.466;2022-12-01T17:04:08;7.60;90.40
49549;DHT22;35450;44.518;7.466;2022-12-01T17:07:12;7.60;90.10
49549;DHT22;35450;44.518;7.466;2022-12-01T17:10:17;7.60;90.10
49549;DHT22;35450;44.518;7.466;2022-12-01T17:13:22;7.50;90.20
49549;DHT22;35450;44.518;7.466;2022-12-01T17:16:25;7.50;90.10
49549;DHT22;35450;44.518;7.466;2022-12-01T17:19:29;7.60;90.20
49549;DHT22;35450;44.518;7.466;2022-12-01T17:22:33;7.50;90.10
49549;DHT22;35450;44.518;7.466;2022-12-01T17:25:41;7.60;90.10
49549;DHT22;35450;44.518;7.466;2022-12-01T17:28:45;7.60;90.10
49549;DHT22;35450;44.518;7.466;2022-12-01T17:31:49;7.50;90.10
49549;DHT22;35450;44.518;7.466;2022-12-01T17:34:53;7.50;90.00
49549;DHT22;35450;44.518;7.466;2022-12-01T17:37:58;7.40;90.20
49549;DHT22;35450;44.518;7.466;2022-12-01T17:41:08;7.50;90.10
49549;DHT22;35450;44.518;7.466;2022-12-01T17:44:12;7.50;90.10
49549;DHT22;35450;44.518;7.466;2022-12-01T17:47:16;7.50;90.10
49549;DHT22;35450;44.518;7.466;2022-12-01T17:50:21;7.50;90.00
49549;DHT22;35450;44.518;7.466;2022-12-01T17:53:25;7.50;90.10
49549;DHT22;35450;44.518;7.466;2022-12-01T17:56:30;7.50;90.10
49549;DHT22;35450;44.518;7.466;2022-12-01T17:59:35;7.60;90.00
49549;DHT22;35450;44.518;7.466;2022-12-01T18:02:39;7.50;90.40
49549;DHT22;35450;44.518;7.466;2022-12-01T18:05:43;7.50;90.80
49549;DHT22;35450;44.518;7.466;2022-12-01T18:08:47;7.40;91.10
49549;DHT22;35450;44.518;7.466;2022-12-01T18:11:53;7.30;91.30
49549;DHT22;35450;44.518;7.466;2022-12-01T18:14:58;7.30;91.60
49549;DHT22;35450;44.518;7.466;2022-12-01T18:18:03;7.20;91.60
49549;DHT22;35450;44.518;7.466;2022-12-01T18:21:09;7.00;91.90
49549;DHT22;35450;44.518;7.466;2022-12-01T18:24:13;6.90;91.70
49549;DHT22;35450;44.518;7.466;2022-12-01T18:27:17;7.00;92.00
49549;DHT22;35450;44.518;7.466;2022-12-01T18:30:21;7.10;92.00
49549;DHT22;35450;44.518;7.466;2022-12-01T18:33:25;7.10;91.30
49549;DHT22;35450;44.518;7.466;2022-12-01T18:36:30;7.20;91.10
49549;DHT22;35450;44.518;7.466;2022-12-01T18:39:35;7.20;91.10
49549;DHT22;35450;44.518;7.466;2022-12-01T18:42:39;7.10;90.80
49549;DHT22;35450;44.518;7.466;2022-12-01T18:45:43;7.10;90.90
49549;DHT22;35450;44.518;7.466;2022-12-01T18:48:55;7.20;90.60
49549;DHT22;35450;44.518;7.466;2022-12-01T18:52:04;7.20;90.50
49549;DHT22;35450;44.518;7.466;2022-12-01T18:55:08;7.30;90.40
49549;DHT22;35450;44.518;7.466;2022-12-01T18:58:12;7.20;90.50
49549;DHT22;35450;44.518;7.466;2022-12-01T19:01:19;7.30;90.50
49549;DHT22;35450;44.518;7.466;2022-12-01T19:04:23;7.30;90.30
49549;DHT22;35450;44.518;7.466;2022-12-01T19:07:28;7.30;90.40
49549;DHT22;35450;44.518;7.466;2022-12-01T19:10:32;7.30;90.60
49549;DHT22;35450;44.518;7.466;2022-12-01T19:13:36;7.10;90.80
49549;DHT22;35450;44.518;7.466;2022-12-01T19:16:40;6.80;91.30
49549;DHT22;35450;44.518;7.466;2022-12-01T19:19:45;6.40;91.90
49549;DHT22;35450;44.518;7.466;2022-12-01T19:22:49;6.50;92.00
49549;DHT22;35450;44.518;7.466;2022-12-01T19:25:52;6.70;91.90
49549;DHT22;35450;44.518;7.466;2022-12-01T19:28:57;6.80;91.60
49549;DHT22;35450;44.518;7.466;2022-12-01T19:32:02;6.90;91.40
49549;DHT22;35450;44.518;7.466;2022-12-01T19:35:06;6.90;90.90
49549;DHT22;35450;44.518;7.466;2022-12-01T19:38:10;6.80;91.30
49549;DHT22;35450;44.518;7.466;2022-12-01T19:41:14;6.80;91.30
49549;DHT22;35450;44.518;7.466;2022-12-01T19:44:19;6.90;91.50
49549;DHT22;35450;44.518;7.466;2022-12-01T19:47:23;6.90;91.50
49549;DHT22;35450;44.518;7.466;2022-12-01T19:50:27;6.90;91.50
49549;DHT22;35450;44.518;7.466;2022-12-01T19:53:32;6.80;91.40
49549;DHT22;35450;44.518;7.466;2022-12-01T19:56:36;6.80;91.30
49549;DHT22;35450;44.518;7.466;2022-12-01T19:59:40;6.90;91.10
49549;DHT22;35450;44.518;7.466;2022-12-01T20:02:45;6.90;91.40
49549;DHT22;35450;44.518;7.466;2022-12-01T20:05:49;6.90;91.40
49549;DHT22;35450;44.518;7.466;2022-12-01T20:08:56;6.80;91.50
49549;DHT22;35450;44.518;7.466;2022-12-01T20:12:00;6.80;91.40
49549;DHT22;35450;44.518;7.466;2022-12-01T20:15:04;6.80;91.50
49549;DHT22;35450;44.518;7.466;2022-12-01T20:18:11;6.70;91.60
49549;DHT22;35450;44.518;7.466;2022-12-01T20:21:27;6.80;91.60
49549;DHT22;35450;44.518;7.466;2022-12-01T20:24:31;6.70;91.70
49549;DHT22;35450;44.518;7.466;2022-12-01T20:27:35;6.60;91.90
49549;DHT22;35450;44.518;7.466;2022-12-01T20:30:39;6.60;91.80
49549;DHT22;35450;44.518;7.466;2022-12-01T20:33:44;6.50;91.80
49549;DHT22;35450;44.518;7.466;2022-12-01T20:36:48;6.50;92.00
49549;DHT22;35450;44.518;7.466;2022-12-01T20:39:52;6.60;91.80
49549;DHT22;35450;44.518;7.466;2022-12-01T20:42:56;6.60;91.80
49549;DHT22;35450;44.518;7.466;2022-12-01T20:46:00;6.60;91.80
49549;DHT22;35450;44.518;7.466;2022-12-01T20:49:04;6.60;91.50
49549;DHT22;35450;44.518;7.466;2022-12-01T20:52:08;6.60;91.60
49549;DHT22;35450;44.518;7.466;2022-12-01T20:55:12;6.50;92.00
49549;DHT22;35450;44.518;7.466;2022-12-01T20:58:16;6.40;91.90
49549;DHT22;35450;44.518;7.466;2022-12-01T21:01:20;6.50;92.10
49549;DHT22;35450;44.518;7.466;2022-12-01T21:04:25;6.50;92.00
49549;DHT22;35450;44.518;7.466;2022-12-01T21:07:29;6.30;92.00
49549;DHT22;35450;44.518;7.466;2022-12-01T21:10:37;6.40;92.00
49549;DHT22;35450;44.518;7.466;2022-12-01T21:13:41;6.40;92.00
49549;DHT22;35450;44.518;7.466;2022-12-01T21:16:46;6.40;92.00
49549;DHT22;35450;44.518;7.466;2022-12-01T21:19:56;6.30;92.00
49549;DHT22;35450;44.518;7.466;2022-12-01T21:23:11;6.40;92.30
49549;DHT22;35450;44.518;7.466;2022-12-01T21:26:15;6.50;92.30
49549;DHT22;35450;44.518;7.466;2022-12-01T21:29:24;6.50;92.00
49549;DHT22;35450;44.518;7.466;2022-12-01T21:32:32;6.20;92.70
49549;DHT22;35450;44.518;7.466;2022-12-01T21:35:37;6.30;92.60
49549;DHT22;35450;44.518;7.466;2022-12-01T21:38:41;6.30;92.60
49549;DHT22;35450;44.518;7.466;2022-12-01T21:41:48;6.00;93.00
49549;DHT22;35450;44.518;7.466;2022-12-01T21:44:54;6.20;92.70
49549;DHT22;35450;44.518;7.466;2022-12-01T21:48:05;6.20;92.70
49549;DHT22;35450;44.518;7.466;2022-12-01T21:51:22;6.10;93.00
49549;DHT22;35450;44.518;7.466;2022-12-01T21:54:27;6.30;92.60